createdAt,value
2018-07-27T00:01:44.858Z,17.23
2018-07-27T00:04:13.768Z,14.38
2018-07-27T00:06:42.636Z,14.15
2018-07-27T00:09:13.006Z,14.83
2018-07-27T00:11:42.689Z,13.22
2018-07-27T00:14:11.674Z,15.93
2018-07-27T00:16:41.327Z,14.43
2018-07-27T00:19:10.236Z,14.45
2018-07-27T00:21:39.148Z,13.30
2018-07-27T00:24:08.079Z,14.35
2018-07-27T00:26:36.947Z,14.90
2018-07-27T00:29:06.547Z,13.83
2018-07-27T00:31:36.324Z,14.05
2018-07-27T00:34:05.497Z,14.45
2018-07-27T00:36:34.619Z,14.75
2018-07-27T00:39:04.231Z,13.83
2018-07-27T00:41:33.258Z,14.63
2018-07-27T00:44:02.379Z,13.78
2018-07-27T00:46:31.520Z,13.85
2018-07-27T00:49:00.603Z,13.93
2018-07-27T00:51:29.735Z,13.75
2018-07-27T00:53:58.573Z,15.70
2018-07-27T00:56:27.716Z,13.80
2018-07-27T00:58:56.614Z,13.40
2018-07-27T01:01:25.585Z,14.83
2018-07-27T01:03:54.431Z,13.40
2018-07-27T01:06:23.293Z,13.48
2018-07-27T01:08:52.219Z,14.93
2018-07-27T01:11:21.920Z,13.25
2018-07-27T01:13:51.624Z,16.65
2018-07-27T01:16:20.645Z,12.85
2018-07-27T01:18:49.540Z,13.08
2018-07-27T01:21:18.403Z,13.78
2018-07-27T01:23:47.517Z,13.30
2018-07-27T01:26:16.649Z,20.60
2018-07-27T01:28:45.564Z,15.45
2018-07-27T01:31:14.476Z,14.15
2018-07-27T01:33:43.344Z,16.10
2018-07-27T01:36:12.248Z,16.45
2018-07-27T01:38:41.111Z,13.75
2018-07-27T01:41:10.009Z,16.02
2018-07-27T01:43:38.934Z,13.75
2018-07-27T01:46:07.843Z,14.98
2018-07-27T01:48:36.947Z,14.38
2018-07-27T01:51:06.121Z,14.47
2018-07-27T01:53:35.188Z,15.18
2018-07-27T01:56:04.413Z,16.07
2018-07-27T01:58:33.311Z,15.72
2018-07-27T02:01:02.704Z,15.10
2018-07-27T02:03:31.262Z,15.65
2018-07-27T02:06:00.269Z,19.10
2018-07-27T02:08:30.031Z,13.53
2018-07-27T02:10:58.992Z,15.78
2018-07-27T02:13:27.905Z,20.50
2018-07-27T02:15:56.814Z,16.12
2018-07-27T02:18:25.831Z,15.23
2018-07-27T02:20:54.793Z,15.70
2018-07-27T02:23:23.690Z,15.15
2018-07-27T02:25:52.559Z,13.85
2018-07-27T02:28:21.579Z,15.30
2018-07-27T02:30:50.462Z,14.78
2018-07-27T02:33:19.459Z,14.33
2018-07-27T02:35:49.363Z,16.12
2018-07-27T02:38:18.959Z,14.83
2018-07-27T02:40:47.896Z,16.90
2018-07-27T02:43:16.741Z,15.45
2018-07-27T02:45:45.640Z,16.48
2018-07-27T02:48:14.482Z,15.23
2018-07-27T02:50:43.399Z,16.57
2018-07-27T02:53:12.248Z,16.55
2018-07-27T02:55:41.141Z,16.05
2018-07-27T02:58:10.233Z,16.23
2018-07-27T03:00:39.230Z,17.82
2018-07-27T03:03:08.092Z,17.30
2018-07-27T03:05:37.172Z,15.50
2018-07-27T03:08:06.206Z,19.00
2018-07-27T03:10:35.092Z,16.90
2018-07-27T03:13:04.198Z,16.05
2018-07-27T03:15:33.220Z,16.42
2018-07-27T03:18:02.408Z,16.85
2018-07-27T03:20:31.582Z,17.45
2018-07-27T03:23:00.598Z,16.82
2018-07-27T03:25:29.464Z,18.92
2018-07-27T03:27:58.378Z,18.10
2018-07-27T03:30:27.238Z,17.42
2018-07-27T03:32:56.361Z,20.30
2018-07-27T03:35:25.354Z,20.62
2018-07-27T03:37:54.269Z,24.52
2018-07-27T03:40:23.182Z,25.10
2018-07-27T03:42:52.086Z,25.60
2018-07-27T03:45:21.281Z,24.00
2018-07-27T03:47:50.181Z,25.43
2018-07-27T03:50:19.302Z,24.67
2018-07-27T03:52:48.394Z,23.85
2018-07-27T03:55:17.306Z,22.05
2018-07-27T03:57:46.464Z,22.67
2018-07-27T04:00:15.667Z,29.87
2018-07-27T04:02:44.544Z,23.60
2018-07-27T04:05:13.399Z,26.02
2018-07-27T04:07:42.313Z,21.85
2018-07-27T04:10:11.231Z,21.07
2018-07-27T04:12:40.211Z,22.32
2018-07-27T04:15:09.589Z,20.75
2018-07-27T04:17:38.528Z,22.58
2018-07-27T04:20:07.480Z,20.88
2018-07-27T04:22:36.361Z,20.08
2018-07-27T04:25:05.311Z,21.02
2018-07-27T04:27:34.244Z,21.68
2018-07-27T04:30:03.104Z,20.77
2018-07-27T04:32:32.033Z,18.77
2018-07-27T04:35:00.964Z,19.40
2018-07-27T04:37:29.864Z,24.47
2018-07-27T04:39:58.756Z,20.48
2018-07-27T04:42:27.663Z,20.25
2018-07-27T04:44:56.562Z,22.42
2018-07-27T04:47:25.532Z,24.23
2018-07-27T04:49:54.648Z,20.25
2018-07-27T04:52:23.527Z,21.48
2018-07-27T04:54:52.442Z,22.40
2018-07-27T04:57:21.337Z,24.72
2018-07-27T04:59:50.321Z,21.68
2018-07-27T05:02:19.174Z,21.35
2018-07-27T05:04:48.393Z,19.62
2018-07-27T05:07:17.344Z,21.93
2018-07-27T05:09:46.234Z,23.75
2018-07-27T05:12:15.152Z,20.80
2018-07-27T05:14:44.021Z,21.55
2018-07-27T05:17:12.910Z,21.73
2018-07-27T05:19:41.772Z,23.12
2018-07-27T05:22:10.741Z,20.55
2018-07-27T05:24:39.631Z,23.57
2018-07-27T05:27:08.544Z,20.35
2018-07-27T05:29:37.488Z,20.48
2018-07-27T05:32:06.540Z,19.20
2018-07-27T05:34:35.424Z,20.12
2018-07-27T05:37:04.375Z,21.97
2018-07-27T05:39:33.230Z,20.37
2018-07-27T05:42:02.167Z,17.85
2018-07-27T05:44:31.044Z,17.42
2018-07-27T05:47:00.079Z,16.45
2018-07-27T05:49:28.983Z,15.50
2018-07-27T05:51:58.504Z,16.07
2018-07-27T05:54:27.958Z,15.90
2018-07-27T05:56:56.996Z,14.85
2018-07-27T05:59:25.932Z,16.62
2018-07-27T06:01:54.888Z,15.98
2018-07-27T06:04:23.871Z,14.95
2018-07-27T06:06:52.772Z,14.78
2018-07-27T06:09:21.659Z,17.30
2018-07-27T06:11:50.557Z,16.48
2018-07-27T06:14:19.083Z,16.50
2018-07-27T06:16:47.979Z,19.67
2018-07-27T06:19:16.889Z,16.95
2018-07-27T06:21:45.970Z,16.80
2018-07-27T06:24:14.935Z,17.90
2018-07-27T06:26:43.819Z,18.52
2018-07-27T06:29:12.843Z,19.67
2018-07-27T06:31:41.844Z,18.30
2018-07-27T06:34:12.169Z,19.17
2018-07-27T06:36:42.079Z,26.10
2018-07-27T06:39:11.747Z,19.62
2018-07-27T06:41:41.235Z,19.48
2018-07-27T06:44:11.243Z,22.93
2018-07-27T06:46:40.272Z,18.67
2018-07-27T06:49:09.928Z,19.55
2018-07-27T06:51:38.848Z,19.20
2018-07-27T06:54:07.917Z,19.70
2018-07-27T06:56:36.776Z,21.70
2018-07-27T06:59:05.677Z,21.15
2018-07-27T07:01:34.589Z,20.52
2018-07-27T07:04:03.483Z,20.55
2018-07-27T07:06:32.837Z,20.00
2018-07-27T07:09:01.776Z,19.00
2018-07-27T07:11:31.525Z,17.52
2018-07-27T07:14:00.388Z,16.67
2018-07-27T07:16:29.452Z,17.67
2018-07-27T07:18:58.353Z,16.55
2018-07-27T07:21:27.631Z,14.43
2018-07-27T07:23:56.511Z,16.42
2018-07-27T07:26:25.575Z,17.17
2018-07-27T07:28:54.866Z,16.53
2018-07-27T07:31:23.791Z,16.37
2018-07-27T07:33:52.767Z,16.97
2018-07-27T07:36:21.850Z,17.10
2018-07-27T07:38:51.353Z,15.83
2018-07-27T07:41:20.328Z,15.33
2018-07-27T07:43:49.243Z,15.50
2018-07-27T07:46:18.124Z,15.83
2018-07-27T07:48:47.148Z,14.60
2018-07-27T07:51:16.324Z,14.57
2018-07-27T07:53:45.452Z,14.20
2018-07-27T07:56:14.532Z,10.17
2018-07-27T07:58:43.106Z,10.07
2018-07-27T08:01:12.175Z,10.10
2018-07-27T08:03:41.075Z,10.97
2018-07-27T08:06:09.962Z,10.60
2018-07-27T08:08:38.874Z,11.73
2018-07-27T08:11:07.810Z,12.10
2018-07-27T08:13:36.699Z,9.00
2018-07-27T08:16:05.669Z,8.83
2018-07-27T08:18:34.548Z,9.93
2018-07-27T08:21:03.521Z,9.10
2018-07-27T08:23:32.444Z,9.90
2018-07-27T08:26:42.724Z,10.63
2018-07-27T08:29:13.088Z,10.73
2018-07-27T08:31:43.285Z,9.93
2018-07-27T08:34:12.854Z,10.90
2018-07-27T08:36:41.920Z,9.37
2018-07-27T08:39:12.307Z,10.33
2018-07-27T08:41:41.862Z,9.90
2018-07-27T08:44:12.721Z,10.20
2018-07-27T08:46:42.530Z,9.83
2018-07-27T08:49:12.348Z,9.63
2018-07-27T08:51:41.542Z,10.20
2018-07-27T08:54:10.560Z,11.07
2018-07-27T08:56:39.210Z,13.10
2018-07-27T08:59:08.565Z,10.20
2018-07-27T09:01:37.600Z,10.10
2018-07-27T09:04:06.677Z,11.17
2018-07-27T09:06:35.548Z,10.30
2018-07-27T09:09:06.887Z,8.73
2018-07-27T09:11:36.556Z,9.57
2018-07-27T09:14:05.077Z,8.80
2018-07-27T09:16:34.127Z,9.20
2018-07-27T09:19:03.029Z,10.63
2018-07-27T09:21:31.908Z,9.70
2018-07-27T09:24:00.963Z,9.43
2018-07-27T09:26:29.798Z,9.90
2018-07-27T09:28:59.254Z,9.70
2018-07-27T09:31:28.168Z,9.10
2018-07-27T09:33:57.176Z,8.93
2018-07-27T09:36:26.235Z,8.97
2018-07-27T09:38:55.690Z,8.80
2018-07-27T09:41:24.610Z,9.83
2018-07-27T09:43:53.504Z,9.33
2018-07-27T09:46:22.393Z,10.83
2018-07-27T09:48:51.898Z,9.57
2018-07-27T09:51:21.939Z,9.40
2018-07-27T09:53:51.070Z,9.00
2018-07-27T09:56:35.127Z,10.57
2018-07-27T09:59:04.087Z,9.57
2018-07-27T10:01:32.952Z,8.93
2018-07-27T10:04:01.952Z,10.20
2018-07-27T10:06:30.816Z,9.30
2018-07-27T10:08:59.740Z,10.87
2018-07-27T10:11:28.689Z,11.10
2018-07-27T10:13:57.567Z,10.70
2018-07-27T10:16:26.411Z,10.83
2018-07-27T10:18:55.316Z,8.50
2018-07-27T10:21:24.191Z,9.30
2018-07-27T10:23:53.100Z,9.23
2018-07-27T10:26:22.287Z,10.33
2018-07-27T10:28:51.218Z,10.87
2018-07-27T10:31:20.230Z,9.43
2018-07-27T10:33:49.105Z,9.37
2018-07-27T10:36:18.052Z,9.50
2018-07-27T10:38:47.240Z,10.25
2018-07-27T10:41:16.107Z,9.68
2018-07-27T10:43:44.984Z,9.50
2018-07-27T10:46:13.897Z,8.43
2018-07-27T10:48:42.898Z,9.03
2018-07-27T10:51:12.733Z,9.45
2018-07-27T10:53:41.889Z,8.55
2018-07-27T10:56:10.931Z,7.90
2018-07-27T10:58:40.068Z,8.70
2018-07-27T11:01:09.876Z,6.90
2018-07-27T11:03:38.749Z,8.93
2018-07-27T11:06:07.884Z,7.43
2018-07-27T11:08:36.804Z,8.20
2018-07-27T11:11:05.756Z,8.20
2018-07-27T11:13:34.626Z,7.23
2018-07-27T11:16:03.523Z,8.00
2018-07-27T11:18:32.435Z,8.10
2018-07-27T11:21:01.326Z,7.67
2018-07-27T11:23:30.409Z,8.10
2018-07-27T11:25:59.334Z,11.10
2018-07-27T11:28:28.504Z,8.20
2018-07-27T11:30:58.101Z,7.33
2018-07-27T11:33:27.085Z,8.87
2018-07-27T11:35:56.071Z,8.70
2018-07-27T11:38:24.935Z,7.87
2018-07-27T11:40:54.411Z,8.10
2018-07-27T11:43:23.283Z,7.87
2018-07-27T11:45:52.583Z,7.53
2018-07-27T11:48:21.472Z,7.00
2018-07-27T11:50:50.409Z,7.70
2018-07-27T11:53:20.330Z,6.73
2018-07-27T11:55:49.362Z,7.80
2018-07-27T11:58:18.220Z,7.67
2018-07-27T12:00:47.298Z,6.63
2018-07-27T12:03:16.325Z,8.70
2018-07-27T12:05:45.351Z,7.40
2018-07-27T12:08:14.314Z,7.20
2018-07-27T12:10:43.206Z,7.77
2018-07-27T12:13:12.374Z,8.63
2018-07-27T12:15:41.236Z,9.73
2018-07-27T12:18:10.152Z,8.05
2018-07-27T12:20:39.086Z,10.85
2018-07-27T12:23:08.110Z,8.08
2018-07-27T12:25:37.879Z,8.58
2018-07-27T12:28:06.802Z,8.50
2018-07-27T12:30:35.663Z,6.85
2018-07-27T12:33:04.592Z,12.18
2018-07-27T12:35:33.592Z,10.10
